sensor_id;sensor_type;location;lat;lon;timestamp;P1;durP1;ratioP1;P2;durP2;ratioP2
30472;SDS011;17263;48.160;11.452;2023-05-01T00:01:39;4.40;;;4.00;;
30472;SDS011;17263;48.160;11.452;2023-05-01T00:04:05;4.37;;;3.97;;
30472;SDS011;17263;48.160;11.452;2023-05-01T00:06:31;4.57;;;3.97;;
30472;SDS011;17263;48.160;11.452;2023-05-01T00:08:58;4.63;;;4.23;;
30472;SDS011;17263;48.160;11.452;2023-05-01T00:11:24;4.23;;;3.70;;
30472;SDS011;17263;48.160;11.452;2023-05-01T00:13:50;4.93;;;3.80;;
30472;SDS011;17263;48.160;11.452;2023-05-01T00:16:16;4.40;;;4.00;;
30472;SDS011;17263;48.160;11.452;2023-05-01T00:18:42;4.87;;;4.37;;
30472;SDS011;17263;48.160;11.452;2023-05-01T00:21:08;6.07;;;4.10;;
30472;SDS011;17263;48.160;11.452;2023-05-01T00:23:34;4.40;;;4.00;;
30472;SDS011;17263;48.160;11.452;2023-05-01T00:26:00;6.83;;;4.33;;
30472;SDS011;17263;48.160;11.452;2023-05-01T00:28:27;4.50;;;4.10;;
30472;SDS011;17263;48.160;11.452;2023-05-01T00:30:53;4.10;;;3.70;;
30472;SDS011;17263;48.160;11.452;2023-05-01T00:33:19;4.83;;;4.30;;
30472;SDS011;17263;48.160;11.452;2023-05-01T00:35:45;4.77;;;4.20;;
30472;SDS011;17263;48.160;11.452;2023-05-01T00:38:11;4.47;;;4.07;;
30472;SDS011;17263;48.160;11.452;2023-05-01T00:40:41;5.10;;;3.80;;
30472;SDS011;17263;48.160;11.452;2023-05-01T00:43:08;4.60;;;3.70;;
30472;SDS011;17263;48.160;11.452;2023-05-01T00:45:36;4.93;;;4.33;;
30472;SDS011;17263;48.160;11.452;2023-05-01T00:48:03;4.87;;;4.10;;
30472;SDS011;17263;48.160;11.452;2023-05-01T00:50:30;4.20;;;3.70;;
30472;SDS011;17263;48.160;11.452;2023-05-01T00:52:56;4.60;;;4.20;;
30472;SDS011;17263;48.160;11.452;2023-05-01T00:55:22;4.87;;;4.40;;
30472;SDS011;17263;48.160;11.452;2023-05-01T00:57:49;4.33;;;4.00;;
30472;SDS011;17263;48.160;11.452;2023-05-01T01:00:15;4.30;;;3.90;;
30472;SDS011;17263;48.160;11.452;2023-05-01T01:02:41;5.13;;;4.63;;
30472;SDS011;17263;48.160;11.452;2023-05-01T01:05:07;4.60;;;4.20;;
30472;SDS011;17263;48.160;11.452;2023-05-01T01:10:18;10.67;;;4.50;;
30472;SDS011;17263;48.160;11.452;2023-05-01T01:13:10;5.73;;;4.60;;
30472;SDS011;17263;48.160;11.452;2023-05-01T01:18:47;6.83;;;4.90;;
30472;SDS011;17263;48.160;11.452;2023-05-01T01:21:35;5.03;;;4.40;;
30472;SDS011;17263;48.160;11.452;2023-05-01T01:24:14;4.67;;;4.27;;
30472;SDS011;17263;48.160;11.452;2023-05-01T01:33:21;5.80;;;4.60;;
30472;SDS011;17263;48.160;11.452;2023-05-01T01:35:26;7.53;;;5.00;;
30472;SDS011;17263;48.160;11.452;2023-05-01T01:37:56;5.10;;;4.67;;
30472;SDS011;17263;48.160;11.452;2023-05-01T01:40:32;5.70;;;4.77;;
30472;SDS011;17263;48.160;11.452;2023-05-01T01:43:15;5.10;;;4.60;;
30472;SDS011;17263;48.160;11.452;2023-05-01T01:45:49;8.13;;;4.83;;
30472;SDS011;17263;48.160;11.452;2023-05-01T01:48:29;5.20;;;4.53;;
30472;SDS011;17263;48.160;11.452;2023-05-01T01:50:58;5.47;;;4.97;;
30472;SDS011;17263;48.160;11.452;2023-05-01T01:53:27;5.40;;;4.90;;
30472;SDS011;17263;48.160;11.452;2023-05-01T01:55:55;6.20;;;5.40;;
30472;SDS011;17263;48.160;11.452;2023-05-01T01:58:23;5.77;;;4.80;;
30472;SDS011;17263;48.160;11.452;2023-05-01T02:00:52;7.33;;;4.83;;
30472;SDS011;17263;48.160;11.452;2023-05-01T02:03:20;5.83;;;5.23;;
30472;SDS011;17263;48.160;11.452;2023-05-01T02:05:48;5.53;;;5.03;;
30472;SDS011;17263;48.160;11.452;2023-05-01T02:08:16;6.50;;;4.80;;
30472;SDS011;17263;48.160;11.452;2023-05-01T02:10:43;5.47;;;4.97;;
30472;SDS011;17263;48.160;11.452;2023-05-01T02:13:11;5.63;;;5.13;;
30472;SDS011;17263;48.160;11.452;2023-05-01T02:15:39;5.97;;;5.10;;
30472;SDS011;17263;48.160;11.452;2023-05-01T02:18:05;6.17;;;5.20;;
30472;SDS011;17263;48.160;11.452;2023-05-01T02:20:33;4.87;;;4.47;;
30472;SDS011;17263;48.160;11.452;2023-05-01T02:23:01;8.43;;;5.40;;
30472;SDS011;17263;48.160;11.452;2023-05-01T02:25:29;6.20;;;5.23;;
30472;SDS011;17263;48.160;11.452;2023-05-01T02:27:59;6.00;;;5.40;;
30472;SDS011;17263;48.160;11.452;2023-05-01T02:30:28;6.13;;;5.53;;
30472;SDS011;17263;48.160;11.452;2023-05-01T02:32:54;7.00;;;6.30;;
30472;SDS011;17263;48.160;11.452;2023-05-01T02:35:21;5.63;;;5.00;;
30472;SDS011;17263;48.160;11.452;2023-05-01T02:37:47;5.80;;;5.30;;
30472;SDS011;17263;48.160;11.452;2023-05-01T02:40:14;5.70;;;5.20;;
30472;SDS011;17263;48.160;11.452;2023-05-01T02:42:41;6.47;;;5.70;;
30472;SDS011;17263;48.160;11.452;2023-05-01T02:45:09;6.70;;;5.27;;
30472;SDS011;17263;48.160;11.452;2023-05-01T02:47:43;5.80;;;5.30;;
30472;SDS011;17263;48.160;11.452;2023-05-01T02:50:12;6.33;;;5.73;;
30472;SDS011;17263;48.160;11.452;2023-05-01T02:52:39;6.80;;;5.60;;
30472;SDS011;17263;48.160;11.452;2023-05-01T02:55:06;7.00;;;6.20;;
30472;SDS011;17263;48.160;11.452;2023-05-01T02:57:33;6.57;;;5.80;;
30472;SDS011;17263;48.160;11.452;2023-05-01T02:59:59;6.00;;;5.50;;
30472;SDS011;17263;48.160;11.452;2023-05-01T03:02:25;6.30;;;5.70;;
30472;SDS011;17263;48.160;11.452;2023-05-01T03:04:51;6.30;;;5.70;;
30472;SDS011;17263;48.160;11.452;2023-05-01T03:07:17;6.20;;;5.60;;
30472;SDS011;17263;48.160;11.452;2023-05-01T03:09:44;6.03;;;5.43;;
30472;SDS011;17263;48.160;11.452;2023-05-01T03:12:10;6.33;;;5.73;;
30472;SDS011;17263;48.160;11.452;2023-05-01T03:14:36;6.67;;;5.97;;
30472;SDS011;17263;48.160;11.452;2023-05-01T03:17:02;8.03;;;6.13;;
30472;SDS011;17263;48.160;11.452;2023-05-01T03:19:28;6.33;;;5.67;;
30472;SDS011;17263;48.160;11.452;2023-05-01T03:21:54;7.63;;;5.70;;
30472;SDS011;17263;48.160;11.452;2023-05-01T03:24:20;7.87;;;7.00;;
30472;SDS011;17263;48.160;11.452;2023-05-01T03:26:46;19.23;;;17.20;;
30472;SDS011;17263;48.160;11.452;2023-05-01T03:29:12;8.97;;;8.07;;
30472;SDS011;17263;48.160;11.452;2023-05-01T03:31:38;6.73;;;6.13;;
30472;SDS011;17263;48.160;11.452;2023-05-01T03:34:04;6.90;;;6.20;;
30472;SDS011;17263;48.160;11.452;2023-05-01T03:36:30;7.13;;;6.37;;
30472;SDS011;17263;48.160;11.452;2023-05-01T03:38:58;8.93;;;6.93;;
30472;SDS011;17263;48.160;11.452;2023-05-01T03:41:24;6.63;;;6.03;;
30472;SDS011;17263;48.160;11.452;2023-05-01T03:43:50;8.27;;;5.97;;
30472;SDS011;17263;48.160;11.452;2023-05-01T03:46:16;7.63;;;6.47;;
30472;SDS011;17263;48.160;11.452;2023-05-01T03:48:42;7.10;;;6.23;;
30472;SDS011;17263;48.160;11.452;2023-05-01T03:51:08;6.67;;;5.90;;
30472;SDS011;17263;48.160;11.452;2023-05-01T03:53:34;7.00;;;6.30;;
30472;SDS011;17263;48.160;11.452;2023-05-01T03:56:01;6.80;;;6.17;;
30472;SDS011;17263;48.160;11.452;2023-05-01T03:58:28;6.83;;;6.23;;
30472;SDS011;17263;48.160;11.452;2023-05-01T04:00:55;8.03;;;6.43;;
30472;SDS011;17263;48.160;11.452;2023-05-01T04:03:25;6.90;;;6.30;;
30472;SDS011;17263;48.160;11.452;2023-05-01T04:05:51;8.97;;;6.47;;
30472;SDS011;17263;48.160;11.452;2023-05-01T04:08:17;7.33;;;6.67;;
30472;SDS011;17263;48.160;11.452;2023-05-01T04:10:43;8.77;;;6.87;;
30472;SDS011;17263;48.160;11.452;2023-05-01T04:13:09;7.47;;;6.83;;
30472;SDS011;17263;48.160;11.452;2023-05-01T04:15:36;6.90;;;6.30;;
30472;SDS011;17263;48.160;11.452;2023-05-01T04:18:02;6.97;;;6.33;;
30472;SDS011;17263;48.160;11.452;2023-05-01T04:20:29;7.37;;;6.67;;
30472;SDS011;17263;48.160;11.452;2023-05-01T04:22:55;7.20;;;6.47;;
30472;SDS011;17263;48.160;11.452;2023-05-01T04:25:21;7.73;;;6.77;;
30472;SDS011;17263;48.160;11.452;2023-05-01T04:27:47;9.57;;;6.43;;
30472;SDS011;17263;48.160;11.452;2023-05-01T04:30:13;9.07;;;6.30;;
30472;SDS011;17263;48.160;11.452;2023-05-01T04:32:39;7.90;;;6.53;;
30472;SDS011;17263;48.160;11.452;2023-05-01T04:35:05;7.80;;;6.93;;
30472;SDS011;17263;48.160;11.452;2023-05-01T04:37:31;7.30;;;6.60;;
30472;SDS011;17263;48.160;11.452;2023-05-01T04:39:57;7.73;;;6.70;;
30472;SDS011;17263;48.160;11.452;2023-05-01T04:42:28;7.43;;;6.73;;
30472;SDS011;17263;48.160;11.452;2023-05-01T04:44:57;6.60;;;6.00;;
30472;SDS011;17263;48.160;11.452;2023-05-01T04:47:27;7.00;;;5.83;;
30472;SDS011;17263;48.160;11.452;2023-05-01T04:49:53;6.90;;;6.20;;
30472;SDS011;17263;48.160;11.452;2023-05-01T04:52:19;7.80;;;7.00;;
30472;SDS011;17263;48.160;11.452;2023-05-01T04:54:45;7.43;;;6.70;;
30472;SDS011;17263;48.160;11.452;2023-05-01T04:57:11;7.30;;;6.63;;
30472;SDS011;17263;48.160;11.452;2023-05-01T04:59:37;7.00;;;6.37;;
30472;SDS011;17263;48.160;11.452;2023-05-01T05:02:03;7.43;;;6.73;;
30472;SDS011;17263;48.160;11.452;2023-05-01T05:04:29;8.43;;;7.03;;
30472;SDS011;17263;48.160;11.452;2023-05-01T05:06:55;7.67;;;6.17;;
30472;SDS011;17263;48.160;11.452;2023-05-01T05:09:21;7.73;;;6.20;;
30472;SDS011;17263;48.160;11.452;2023-05-01T05:11:47;7.20;;;6.10;;
30472;SDS011;17263;48.160;11.452;2023-05-01T05:14:13;6.93;;;6.07;;
30472;SDS011;17263;48.160;11.452;2023-05-01T05:16:39;9.13;;;6.10;;
30472;SDS011;17263;48.160;11.452;2023-05-01T05:19:06;7.23;;;6.53;;
30472;SDS011;17263;48.160;11.452;2023-05-01T05:21:32;8.40;;;5.90;;
30472;SDS011;17263;48.160;11.452;2023-05-01T05:23:58;7.53;;;6.70;;
30472;SDS011;17263;48.160;11.452;2023-05-01T05:26:24;7.93;;;7.17;;
30472;SDS011;17263;48.160;11.452;2023-05-01T05:28:51;7.50;;;6.77;;
30472;SDS011;17263;48.160;11.452;2023-05-01T05:31:17;7.97;;;6.13;;
30472;SDS011;17263;48.160;11.452;2023-05-01T05:33:43;8.17;;;6.37;;
30472;SDS011;17263;48.160;11.452;2023-05-01T05:36:10;7.07;;;6.37;;
30472;SDS011;17263;48.160;11.452;2023-05-01T05:38:36;7.80;;;6.47;;
30472;SDS011;17263;48.160;11.452;2023-05-01T05:41:03;9.90;;;6.20;;
30472;SDS011;17263;48.160;11.452;2023-05-01T05:43:29;6.77;;;6.07;;
30472;SDS011;17263;48.160;11.452;2023-05-01T05:45:55;6.47;;;5.87;;
30472;SDS011;17263;48.160;11.452;2023-05-01T05:48:25;6.30;;;5.53;;
30472;SDS011;17263;48.160;11.452;2023-05-01T05:50:51;6.70;;;6.00;;
30472;SDS011;17263;48.160;11.452;2023-05-01T05:53:20;6.87;;;6.17;;
30472;SDS011;17263;48.160;11.452;2023-05-01T05:55:47;6.60;;;5.80;;
30472;SDS011;17263;48.160;11.452;2023-05-01T05:58:13;6.80;;;6.20;;
30472;SDS011;17263;48.160;11.452;2023-05-01T06:00:45;7.57;;;6.73;;
30472;SDS011;17263;48.160;11.452;2023-05-01T06:03:12;6.57;;;5.97;;
30472;SDS011;17263;48.160;11.452;2023-05-01T06:05:38;7.77;;;5.87;;
30472;SDS011;17263;48.160;11.452;2023-05-01T06:08:04;6.83;;;5.77;;
30472;SDS011;17263;48.160;11.452;2023-05-01T06:10:30;6.83;;;6.23;;
30472;SDS011;17263;48.160;11.452;2023-05-01T06:12:56;6.53;;;5.77;;
30472;SDS011;17263;48.160;11.452;2023-05-01T06:15:22;6.10;;;5.50;;
30472;SDS011;17263;48.160;11.452;2023-05-01T06:17:49;6.40;;;5.80;;
30472;SDS011;17263;48.160;11.452;2023-05-01T06:20:15;6.93;;;6.23;;
30472;SDS011;17263;48.160;11.452;2023-05-01T06:22:41;6.30;;;5.70;;
30472;SDS011;17263;48.160;11.452;2023-05-01T06:25:07;6.73;;;6.13;;
30472;SDS011;17263;48.160;11.452;2023-05-01T06:27:34;7.80;;;5.87;;
30472;SDS011;17263;48.160;11.452;2023-05-01T06:30:00;6.67;;;6.07;;
30472;SDS011;17263;48.160;11.452;2023-05-01T06:32:26;6.90;;;6.20;;
30472;SDS011;17263;48.160;11.452;2023-05-01T06:34:52;8.13;;;5.67;;
30472;SDS011;17263;48.160;11.452;2023-05-01T06:37:18;6.10;;;5.50;;
30472;SDS011;17263;48.160;11.452;2023-05-01T06:39:44;7.40;;;6.40;;
30472;SDS011;17263;48.160;11.452;2023-05-01T06:42:10;6.43;;;5.83;;
30472;SDS011;17263;48.160;11.452;2023-05-01T06:44:40;7.53;;;6.23;;
30472;SDS011;17263;48.160;11.452;2023-05-01T06:47:07;6.27;;;5.67;;
30472;SDS011;17263;48.160;11.452;2023-05-01T06:49:33;6.00;;;5.37;;
30472;SDS011;17263;48.160;11.452;2023-05-01T06:51:59;6.20;;;5.60;;
30472;SDS011;17263;48.160;11.452;2023-05-01T06:54:25;6.20;;;5.60;;
30472;SDS011;17263;48.160;11.452;2023-05-01T06:56:52;7.27;;;5.80;;
30472;SDS011;17263;48.160;11.452;2023-05-01T06:59:18;6.27;;;5.70;;
30472;SDS011;17263;48.160;11.452;2023-05-01T07:01:44;5.70;;;5.20;;
30472;SDS011;17263;48.160;11.452;2023-05-01T07:04:10;5.80;;;5.20;;
30472;SDS011;17263;48.160;11.452;2023-05-01T07:06:36;7.63;;;5.10;;
30472;SDS011;17263;48.160;11.452;2023-05-01T07:09:03;6.00;;;5.47;;
30472;SDS011;17263;48.160;11.452;2023-05-01T07:11:29;5.43;;;4.93;;
30472;SDS011;17263;48.160;11.452;2023-05-01T07:13:57;6.57;;;4.80;;
30472;SDS011;17263;48.160;11.452;2023-05-01T07:16:23;5.67;;;5.13;;
30472;SDS011;17263;48.160;11.452;2023-05-01T07:18:49;5.50;;;4.93;;
30472;SDS011;17263;48.160;11.452;2023-05-01T07:21:15;5.20;;;4.80;;
30472;SDS011;17263;48.160;11.452;2023-05-01T07:23:41;6.40;;;5.43;;
30472;SDS011;17263;48.160;11.452;2023-05-01T07:26:07;8.20;;;5.97;;
30472;SDS011;17263;48.160;11.452;2023-05-01T07:28:33;5.80;;;5.30;;
30472;SDS011;17263;48.160;11.452;2023-05-01T07:30:59;5.30;;;4.80;;
30472;SDS011;17263;48.160;11.452;2023-05-01T07:33:26;5.70;;;4.90;;
30472;SDS011;17263;48.160;11.452;2023-05-01T07:35:52;6.17;;;4.70;;
30472;SDS011;17263;48.160;11.452;2023-05-01T07:38:18;5.40;;;4.90;;
30472;SDS011;17263;48.160;11.452;2023-05-01T07:40:44;5.53;;;5.00;;
30472;SDS011;17263;48.160;11.452;2023-05-01T07:43:10;5.50;;;5.00;;
30472;SDS011;17263;48.160;11.452;2023-05-01T07:45:37;5.57;;;5.07;;
30472;SDS011;17263;48.160;11.452;2023-05-01T07:48:04;5.57;;;4.87;;
30472;SDS011;17263;48.160;11.452;2023-05-01T07:50:30;5.63;;;5.13;;
30472;SDS011;17263;48.160;11.452;2023-05-01T07:52:56;5.57;;;4.90;;
30472;SDS011;17263;48.160;11.452;2023-05-01T07:55:23;6.50;;;5.67;;
30472;SDS011;17263;48.160;11.452;2023-05-01T07:57:49;5.43;;;4.93;;
30472;SDS011;17263;48.160;11.452;2023-05-01T08:00:15;6.00;;;5.50;;
30472;SDS011;17263;48.160;11.452;2023-05-01T08:02:42;6.00;;;5.50;;
30472;SDS011;17263;48.160;11.452;2023-05-01T08:05:08;5.57;;;5.07;;
30472;SDS011;17263;48.160;11.452;2023-05-01T08:07:34;9.33;;;5.37;;
30472;SDS011;17263;48.160;11.452;2023-05-01T08:10:01;6.40;;;5.47;;
30472;SDS011;17263;48.160;11.452;2023-05-01T08:12:27;5.33;;;4.83;;
30472;SDS011;17263;48.160;11.452;2023-05-01T08:14:53;7.60;;;5.63;;
30472;SDS011;17263;48.160;11.452;2023-05-01T08:17:20;6.70;;;6.00;;
30472;SDS011;17263;48.160;11.452;2023-05-01T08:19:46;5.73;;;5.10;;
30472;SDS011;17263;48.160;11.452;2023-05-01T08:22:12;5.70;;;5.17;;
30472;SDS011;17263;48.160;11.452;2023-05-01T08:24:38;5.87;;;5.37;;
30472;SDS011;17263;48.160;11.452;2023-05-01T08:27:06;5.43;;;4.93;;
30472;SDS011;17263;48.160;11.452;2023-05-01T08:29:33;5.97;;;4.80;;
30472;SDS011;17263;48.160;11.452;2023-05-01T08:31:59;5.63;;;4.90;;
30472;SDS011;17263;48.160;11.452;2023-05-01T08:34:25;7.40;;;5.07;;
30472;SDS011;17263;48.160;11.452;2023-05-01T08:36:51;5.60;;;5.10;;
30472;SDS011;17263;48.160;11.452;2023-05-01T08:39:18;5.50;;;4.97;;
30472;SDS011;17263;48.160;11.452;2023-05-01T08:41:44;5.17;;;4.67;;
30472;SDS011;17263;48.160;11.452;2023-05-01T08:44:14;5.70;;;5.20;;
30472;SDS011;17263;48.160;11.452;2023-05-01T08:46:47;6.80;;;5.53;;
30472;SDS011;17263;48.160;11.452;2023-05-01T08:49:34;5.87;;;5.37;;
30472;SDS011;17263;48.160;11.452;2023-05-01T08:52:02;6.30;;;5.10;;
30472;SDS011;17263;48.160;11.452;2023-05-01T08:54:32;6.00;;;4.87;;
30472;SDS011;17263;48.160;11.452;2023-05-01T08:57:00;6.67;;;6.03;;
30472;SDS011;17263;48.160;11.452;2023-05-01T08:59:28;7.00;;;5.60;;
30472;SDS011;17263;48.160;11.452;2023-05-01T09:01:59;6.70;;;6.03;;
30472;SDS011;17263;48.160;11.452;2023-05-01T09:04:59;6.83;;;6.03;;
30472;SDS011;17263;48.160;11.452;2023-05-01T09:07:18;6.77;;;6.10;;
30472;SDS011;17263;48.160;11.452;2023-05-01T09:09:44;6.43;;;5.83;;
30472;SDS011;17263;48.160;11.452;2023-05-01T09:12:12;7.23;;;6.53;;
30472;SDS011;17263;48.160;11.452;2023-05-01T09:14:48;6.57;;;5.93;;
30472;SDS011;17263;48.160;11.452;2023-05-01T09:17:16;7.40;;;6.70;;
30472;SDS011;17263;48.160;11.452;2023-05-01T09:19:43;8.20;;;7.23;;
30472;SDS011;17263;48.160;11.452;2023-05-01T09:22:09;6.90;;;6.30;;
30472;SDS011;17263;48.160;11.452;2023-05-01T09:24:35;7.67;;;6.67;;
30472;SDS011;17263;48.160;11.452;2023-05-01T09:27:01;7.47;;;6.63;;
30472;SDS011;17263;48.160;11.452;2023-05-01T09:29:35;7.33;;;6.63;;
30472;SDS011;17263;48.160;11.452;2023-05-01T09:32:13;9.97;;;8.27;;
30472;SDS011;17263;48.160;11.452;2023-05-01T09:34:47;7.73;;;6.90;;
30472;SDS011;17263;48.160;11.452;2023-05-01T09:37:30;7.87;;;7.13;;
30472;SDS011;17263;48.160;11.452;2023-05-01T09:40:10;7.47;;;6.77;;
30472;SDS011;17263;48.160;11.452;2023-05-01T09:42:38;7.60;;;6.80;;
30472;SDS011;17263;48.160;11.452;2023-05-01T09:45:11;7.93;;;7.13;;
30472;SDS011;17263;48.160;11.452;2023-05-01T09:47:41;8.20;;;7.43;;
30472;SDS011;17263;48.160;11.452;2023-05-01T09:52:55;8.87;;;7.97;;
30472;SDS011;17263;48.160;11.452;2023-05-01T09:55:21;9.13;;;8.23;;
30472;SDS011;17263;48.160;11.452;2023-05-01T09:57:48;8.97;;;8.07;;
30472;SDS011;17263;48.160;11.452;2023-05-01T10:00:15;8.70;;;8.00;;
30472;SDS011;17263;48.160;11.452;2023-05-01T10:02:42;8.67;;;7.80;;
30472;SDS011;17263;48.160;11.452;2023-05-01T10:05:10;9.73;;;8.83;;
30472;SDS011;17263;48.160;11.452;2023-05-01T10:07:37;10.17;;;8.63;;
30472;SDS011;17263;48.160;11.452;2023-05-01T10:12:42;9.70;;;8.80;;
30472;SDS011;17263;48.160;11.452;2023-05-01T10:15:09;10.53;;;9.40;;
30472;SDS011;17263;48.160;11.452;2023-05-01T10:17:35;9.37;;;8.47;;
30472;SDS011;17263;48.160;11.452;2023-05-01T10:20:03;10.43;;;9.33;;
30472;SDS011;17263;48.160;11.452;2023-05-01T10:22:30;10.30;;;9.30;;
30472;SDS011;17263;48.160;11.452;2023-05-01T10:24:56;9.83;;;8.83;;
30472;SDS011;17263;48.160;11.452;2023-05-01T10:27:23;10.53;;;9.53;;
30472;SDS011;17263;48.160;11.452;2023-05-01T10:29:53;11.37;;;10.27;;
30472;SDS011;17263;48.160;11.452;2023-05-01T10:32:20;11.60;;;10.50;;
30472;SDS011;17263;48.160;11.452;2023-05-01T10:34:47;11.50;;;10.30;;
30472;SDS011;17263;48.160;11.452;2023-05-01T10:37:30;11.17;;;10.07;;
30472;SDS011;17263;48.160;11.452;2023-05-01T10:51:15;12.07;;;10.83;;
30472;SDS011;17263;48.160;11.452;2023-05-01T10:59:01;10.33;;;9.43;;
30472;SDS011;17263;48.160;11.452;2023-05-01T11:04:08;11.40;;;10.30;;
30472;SDS011;17263;48.160;11.452;2023-05-01T11:09:35;11.60;;;10.43;;
30472;SDS011;17263;48.160;11.452;2023-05-01T11:12:05;12.43;;;11.30;;
30472;SDS011;17263;48.160;11.452;2023-05-01T11:20:09;11.80;;;10.70;;
30472;SDS011;17263;48.160;11.452;2023-05-01T11:22:38;12.53;;;11.17;;
30472;SDS011;17263;48.160;11.452;2023-05-01T11:25:21;11.80;;;10.57;;
30472;SDS011;17263;48.160;11.452;2023-05-01T11:27:52;11.17;;;10.17;;
30472;SDS011;17263;48.160;11.452;2023-05-01T11:30:20;11.80;;;10.70;;
30472;SDS011;17263;48.160;11.452;2023-05-01T11:32:47;12.03;;;10.90;;
30472;SDS011;17263;48.160;11.452;2023-05-01T11:37:44;13.67;;;12.37;;
30472;SDS011;17263;48.160;11.452;2023-05-01T11:42:48;11.97;;;10.73;;
30472;SDS011;17263;48.160;11.452;2023-05-01T11:45:15;12.57;;;11.37;;
30472;SDS011;17263;48.160;11.452;2023-05-01T11:47:41;12.70;;;11.13;;
30472;SDS011;17263;48.160;11.452;2023-05-01T11:50:07;11.70;;;10.60;;
30472;SDS011;17263;48.160;11.452;2023-05-01T11:52:45;12.00;;;10.83;;
30472;SDS011;17263;48.160;11.452;2023-05-01T11:55:19;12.63;;;11.27;;
30472;SDS011;17263;48.160;11.452;2023-05-01T11:57:52;12.20;;;11.13;;
30472;SDS011;17263;48.160;11.452;2023-05-01T12:00:28;12.80;;;11.60;;
30472;SDS011;17263;48.160;11.452;2023-05-01T12:03:05;13.07;;;11.67;;
30472;SDS011;17263;48.160;11.452;2023-05-01T12:05:33;12.57;;;11.47;;
30472;SDS011;17263;48.160;11.452;2023-05-01T12:08:07;11.77;;;10.67;;
30472;SDS011;17263;48.160;11.452;2023-05-01T12:10:36;11.73;;;10.53;;
30472;SDS011;17263;48.160;11.452;2023-05-01T12:13:03;11.90;;;10.77;;
30472;SDS011;17263;48.160;11.452;2023-05-01T12:15:31;10.67;;;9.77;;
30472;SDS011;17263;48.160;11.452;2023-05-01T12:18:00;11.40;;;10.30;;
30472;SDS011;17263;48.160;11.452;2023-05-01T12:20:49;11.70;;;10.70;;
30472;SDS011;17263;48.160;11.452;2023-05-01T12:23:16;11.27;;;10.27;;
30472;SDS011;17263;48.160;11.452;2023-05-01T12:26:19;11.63;;;10.53;;
30472;SDS011;17263;48.160;11.452;2023-05-01T12:31:23;11.87;;;10.73;;
30472;SDS011;17263;48.160;11.452;2023-05-01T12:36:30;12.27;;;11.10;;
30472;SDS011;17263;48.160;11.452;2023-05-01T12:38:59;11.47;;;10.37;;
30472;SDS011;17263;48.160;11.452;2023-05-01T12:46:44;11.87;;;10.77;;
30472;SDS011;17263;48.160;11.452;2023-05-01T12:49:18;11.97;;;10.97;;
30472;SDS011;17263;48.160;11.452;2023-05-01T12:51:49;11.27;;;10.37;;
30472;SDS011;17263;48.160;11.452;2023-05-01T12:54:20;12.77;;;11.67;;
30472;SDS011;17263;48.160;11.452;2023-05-01T12:56:48;12.73;;;11.57;;
30472;SDS011;17263;48.160;11.452;2023-05-01T12:59:24;12.57;;;11.47;;
30472;SDS011;17263;48.160;11.452;2023-05-01T13:02:01;12.53;;;11.37;;
30472;SDS011;17263;48.160;11.452;2023-05-01T13:04:29;11.27;;;10.27;;
30472;SDS011;17263;48.160;11.452;2023-05-01T13:06:55;11.33;;;10.33;;
30472;SDS011;17263;48.160;11.452;2023-05-01T13:09:22;11.00;;;10.00;;
30472;SDS011;17263;48.160;11.452;2023-05-01T13:11:54;11.13;;;10.13;;
30472;SDS011;17263;48.160;11.452;2023-05-01T13:14:37;11.60;;;10.67;;
30472;SDS011;17263;48.160;11.452;2023-05-01T13:17:04;11.00;;;10.00;;
30472;SDS011;17263;48.160;11.452;2023-05-01T13:19:31;11.37;;;10.27;;
30472;SDS011;17263;48.160;11.452;2023-05-01T13:21:58;10.70;;;9.67;;
30472;SDS011;17263;48.160;11.452;2023-05-01T13:24:33;10.83;;;9.77;;
30472;SDS011;17263;48.160;11.452;2023-05-01T13:27:11;11.13;;;10.03;;
30472;SDS011;17263;48.160;11.452;2023-05-01T13:29:38;11.50;;;10.30;;
30472;SDS011;17263;48.160;11.452;2023-05-01T13:32:09;10.07;;;9.17;;
30472;SDS011;17263;48.160;11.452;2023-05-01T13:34:35;10.83;;;9.10;;
30472;SDS011;17263;48.160;11.452;2023-05-01T13:37:08;10.13;;;9.33;;
30472;SDS011;17263;48.160;11.452;2023-05-01T13:39:45;11.70;;;9.50;;
30472;SDS011;17263;48.160;11.452;2023-05-01T13:42:12;10.10;;;9.20;;
30472;SDS011;17263;48.160;11.452;2023-05-01T13:44:45;9.53;;;8.73;;
30472;SDS011;17263;48.160;11.452;2023-05-01T13:47:15;10.30;;;9.23;;
30472;SDS011;17263;48.160;11.452;2023-05-01T13:49:43;9.60;;;8.70;;
30472;SDS011;17263;48.160;11.452;2023-05-01T13:52:19;9.70;;;8.80;;
30472;SDS011;17263;48.160;11.452;2023-05-01T13:54:46;9.63;;;8.83;;
30472;SDS011;17263;48.160;11.452;2023-05-01T13:57:13;9.80;;;9.00;;
30472;SDS011;17263;48.160;11.452;2023-05-01T13:59:41;10.00;;;9.10;;
30472;SDS011;17263;48.160;11.452;2023-05-01T14:02:27;9.37;;;8.60;;
30472;SDS011;17263;48.160;11.452;2023-05-01T14:04:53;9.53;;;8.63;;
30472;SDS011;17263;48.160;11.452;2023-05-01T14:07:20;9.33;;;8.43;;
30472;SDS011;17263;48.160;11.452;2023-05-01T14:12:18;9.77;;;8.87;;
30472;SDS011;17263;48.160;11.452;2023-05-01T14:14:47;8.60;;;7.80;;
30472;SDS011;17263;48.160;11.452;2023-05-01T14:17:13;8.87;;;8.07;;
30472;SDS011;17263;48.160;11.452;2023-05-01T14:19:39;7.83;;;7.13;;
30472;SDS011;17263;48.160;11.452;2023-05-01T14:22:06;8.73;;;7.93;;
30472;SDS011;17263;48.160;11.452;2023-05-01T14:24:34;8.30;;;7.57;;
30472;SDS011;17263;48.160;11.452;2023-05-01T14:27:07;8.50;;;7.70;;
30472;SDS011;17263;48.160;11.452;2023-05-01T14:29:36;8.67;;;7.90;;
30472;SDS011;17263;48.160;11.452;2023-05-01T14:32:08;8.37;;;7.60;;
30472;SDS011;17263;48.160;11.452;2023-05-01T14:34:36;11.17;;;7.80;;
30472;SDS011;17263;48.160;11.452;2023-05-01T14:37:06;8.03;;;7.33;;
30472;SDS011;17263;48.160;11.452;2023-05-01T14:39:33;9.07;;;8.10;;
30472;SDS011;17263;48.160;11.452;2023-05-01T14:41:59;8.03;;;7.33;;
30472;SDS011;17263;48.160;11.452;2023-05-01T14:44:26;8.13;;;7.43;;
30472;SDS011;17263;48.160;11.452;2023-05-01T14:46:55;7.83;;;7.13;;
30472;SDS011;17263;48.160;11.452;2023-05-01T14:49:23;7.57;;;6.77;;
30472;SDS011;17263;48.160;11.452;2023-05-01T14:51:50;8.00;;;7.30;;
30472;SDS011;17263;48.160;11.452;2023-05-01T14:54:18;7.50;;;6.80;;
30472;SDS011;17263;48.160;11.452;2023-05-01T14:56:45;6.93;;;6.33;;
30472;SDS011;17263;48.160;11.452;2023-05-01T14:59:12;7.13;;;6.53;;
30472;SDS011;17263;48.160;11.452;2023-05-01T15:01:38;7.07;;;6.47;;
30472;SDS011;17263;48.160;11.452;2023-05-01T15:04:05;7.43;;;6.27;;
30472;SDS011;17263;48.160;11.452;2023-05-01T15:06:32;7.03;;;6.20;;
30472;SDS011;17263;48.160;11.452;2023-05-01T15:08:58;7.03;;;6.40;;
30472;SDS011;17263;48.160;11.452;2023-05-01T15:11:25;7.10;;;6.47;;
30472;SDS011;17263;48.160;11.452;2023-05-01T15:13:51;6.83;;;6.10;;
30472;SDS011;17263;48.160;11.452;2023-05-01T15:16:18;6.63;;;5.93;;
30472;SDS011;17263;48.160;11.452;2023-05-01T15:18:44;6.43;;;5.83;;
30472;SDS011;17263;48.160;11.452;2023-05-01T15:21:10;7.10;;;6.50;;
30472;SDS011;17263;48.160;11.452;2023-05-01T15:23:38;6.80;;;6.20;;
30472;SDS011;17263;48.160;11.452;2023-05-01T15:26:05;7.87;;;7.07;;
30472;SDS011;17263;48.160;11.452;2023-05-01T15:28:31;8.23;;;7.43;;
30472;SDS011;17263;48.160;11.452;2023-05-01T15:30:57;7.33;;;6.73;;
30472;SDS011;17263;48.160;11.452;2023-05-01T15:33:23;7.70;;;6.90;;
30472;SDS011;17263;48.160;11.452;2023-05-01T15:35:50;8.63;;;7.73;;
30472;SDS011;17263;48.160;11.452;2023-05-01T15:38:17;8.10;;;7.30;;
30472;SDS011;17263;48.160;11.452;2023-05-01T15:40:44;7.00;;;6.40;;